Time;durP1;ratioP1;P1;durP2;ratioP2;P2;SDS_P1;SDS_P2;PMS_P1;PMS_P2;Temp;Humidity;BMP_temperature;BMP_pressure;BME280_temperature;BME280_humidity;BME280_pressure;Samples;Min_cycle;Max_cycle;Signal;HPM_P1;HPM_P2
2024/01/17 00:09:38;;;;;;;19.15;10.15;;;-0.90;99.90;;;;;;20875410;28;20098;-43
2024/01/17 00:19:40;;;;;;;20.90;10.20;;;-1.00;99.90;;;;;;20836473;28;20036;-43
2024/01/17 00:29:42;;;;;;;24.13;11.60;;;-0.70;99.90;;;;;;20856925;28;20327;-43
2024/01/17 00:39:44;;;;;;;21.17;10.32;;;-0.60;99.90;;;;;;20867805;28;20048;-43
2024/01/17 00:49:46;;;;;;;20.88;11.07;;;-0.70;99.90;;;;;;20885596;28;20036;-43
2024/01/17 00:59:48;;;;;;;22.23;10.55;;;-0.60;99.90;;;;;;20866951;28;20085;-44
2024/01/17 01:09:50;;;;;;;26.45;11.30;;;-0.50;99.90;;;;;;20882006;28;20036;-43
2024/01/17 01:19:54;;;;;;;18.20;9.82;;;-0.40;99.90;;;;;;20882755;28;20128;-44
2024/01/17 01:29:56;;;;;;;24.15;10.70;;;-0.40;99.90;;;;;;20883253;28;20044;-42
2024/01/17 01:39:58;;;;;;;26.05;11.38;;;-0.50;99.90;;;;;;20882854;28;20048;-43
2024/01/17 01:50:05;;;;;;;25.95;11.25;;;-0.40;99.90;;;;;;20879464;28;20048;-43
2024/01/17 02:00:07;;;;;;;24.75;10.82;;;-0.40;99.90;;;;;;20882430;28;20040;-43
2024/01/17 02:10:15;;;;;;;27.92;11.93;;;-0.40;99.90;;;;;;20878993;28;20481;-43
2024/01/17 02:20:19;;;;;;;20.65;8.98;;;-0.40;99.90;;;;;;20859382;28;20044;-43
2024/01/17 02:30:21;;;;;;;23.27;10.02;;;-0.30;99.90;;;;;;20873696;28;20040;-43
2024/01/17 02:40:23;;;;;;;17.48;7.97;;;-0.30;99.90;;;;;;20873416;28;20051;-43
2024/01/17 02:50:26;;;;;;;19.17;8.98;;;-0.30;99.90;;;;;;20872614;28;20497;-45
2024/01/17 03:00:28;;;;;;;22.38;9.63;;;-0.30;99.90;;;;;;20870401;28;20040;-44
2024/01/17 03:10:30;;;;;;;24.15;10.00;;;-0.30;99.90;;;;;;20869671;28;20036;-44
2024/01/17 03:20:32;;;;;;;21.50;10.02;;;-0.30;99.90;;;;;;20870141;28;20044;-43
2024/01/17 03:30:36;;;;;;;17.52;8.90;;;-0.30;99.90;;;;;;20875060;28;20036;-44
2024/01/17 03:40:41;;;;;;;26.35;12.13;;;-0.30;99.90;;;;;;20825405;28;20934;-43
2024/01/17 03:50:43;;;;;;;27.48;13.23;;;-0.20;99.90;;;;;;20829403;28;20086;-44
2024/01/17 04:00:45;;;;;;;34.08;14.13;;;-0.20;99.90;;;;;;20829386;28;20040;-45
2024/01/17 04:10:50;;;;;;;211.40;20.13;;;-0.40;99.90;;;;;;20826987;28;20090;-47
2024/01/17 04:20:51;;;;;;;189.48;16.88;;;-0.60;99.90;;;;;;20839064;28;20044;-42
2024/01/17 04:30:53;;;;;;;45.60;14.50;;;-0.70;99.90;;;;;;20843154;28;20131;-42
2024/01/17 04:40:55;;;;;;;249.40;20.50;;;-0.80;99.90;;;;;;20882624;28;20060;-42
2024/01/17 04:50:58;;;;;;;36.92;14.70;;;-0.80;99.90;;;;;;20882387;28;20086;-43
2024/01/17 05:01:00;;;;;;;483.25;33.58;;;-0.80;99.90;;;;;;20883305;28;20490;-42
2024/01/17 05:11:02;;;;;;;68.70;17.40;;;-0.80;99.90;;;;;;20884764;28;20094;-43
2024/01/17 05:21:04;;;;;;;44.78;16.83;;;-0.80;99.90;;;;;;20879114;28;21187;-45
2024/01/17 05:31:06;;;;;;;160.95;20.70;;;-0.70;99.90;;;;;;20883019;28;20040;-45
2024/01/17 05:41:09;;;;;;;127.00;20.55;;;-0.70;99.90;;;;;;20883487;28;20089;-45
2024/01/17 05:51:12;;;;;;;54.60;16.20;;;-0.60;99.90;;;;;;20859954;28;21190;-42
2024/01/17 06:01:14;;;;;;;36.13;15.38;;;-0.50;99.90;;;;;;20859571;28;20093;-43
2024/01/17 06:11:16;;;;;;;28.52;12.65;;;-0.40;99.90;;;;;;20876701;28;21160;-45
2024/01/17 06:21:21;;;;;;;133.50;17.77;;;-0.30;99.90;;;;;;20874861;28;20093;-42
2024/01/17 06:31:25;;;;;;;30.13;12.70;;;-0.30;99.90;;;;;;20873752;28;20036;-43
2024/01/17 06:41:26;;;;;;;24.05;11.02;;;-0.20;99.90;;;;;;20911892;28;20048;-42
2024/01/17 06:51:31;;;;;;;55.88;9.70;;;-0.10;99.90;;;;;;20891823;28;20059;-44
2024/01/17 07:01:35;;;;;;;25.45;9.07;;;0.00;99.90;;;;;;20910573;28;20048;-43
2024/01/17 07:11:37;;;;;;;129.88;10.15;;;0.10;99.90;;;;;;20906445;28;20543;-44
2024/01/17 07:21:42;;;;;;;98.85;7.25;;;0.10;99.90;;;;;;20907748;28;20059;-43
2024/01/17 07:31:44;;;;;;;6.93;3.42;;;0.20;99.90;;;;;;20906118;28;20494;-43
2024/01/17 07:41:46;;;;;;;6.93;3.30;;;0.20;99.90;;;;;;20906116;28;20044;-43
2024/01/17 07:51:48;;;;;;;20.25;4.60;;;0.20;99.90;;;;;;20915676;28;21565;-43
2024/01/17 08:01:50;;;;;;;10.98;2.53;;;0.40;99.90;;;;;;20936838;28;20090;-44
2024/01/17 08:11:55;;;;;;;403.20;14.95;;;0.50;99.90;;;;;;20935686;28;20089;-45
2024/01/17 08:21:58;;;;;;;104.53;4.80;;;0.50;99.90;;;;;;20915630;28;20459;-43
2024/01/17 08:32:00;;;;;;;41.30;2.20;;;0.50;99.90;;;;;;20934012;28;20697;-44
2024/01/17 08:42:02;;;;;;;56.35;2.40;;;0.60;99.90;;;;;;20894255;28;20093;-46
2024/01/17 08:52:04;;;;;;;192.60;6.63;;;0.60;99.90;;;;;;20895635;28;20036;-44
2024/01/17 09:02:06;;;;;;;4.63;1.00;;;0.70;99.90;;;;;;20887312;28;21504;-43
2024/01/17 09:12:08;;;;;;;0.80;0.45;;;0.70;99.90;;;;;;20881631;28;20037;-44
2024/01/17 09:22:13;;;;;;;0.20;0.10;;;0.70;99.90;;;;;;20877332;28;20682;-44
2024/01/17 09:32:17;;;;;;;0.20;0.00;;;0.80;99.90;;;;;;20882104;28;20133;-44
2024/01/17 09:42:21;;;;;;;0.00;0.00;;;1.00;99.90;;;;;;20917242;28;20093;-45
2024/01/17 09:52:23;;;;;;;0.00;0.00;;;0.90;99.90;;;;;;20919271;28;20032;-45
2024/01/17 10:02:27;;;;;;;0.00;0.00;;;1.00;99.90;;;;;;20918007;28;20041;-44
2024/01/17 10:12:29;;;;;;;0.00;0.00;;;1.00;99.90;;;;;;20914369;28;21061;-45
2024/01/17 10:22:32;;;;;;;6.10;0.20;;;1.00;99.90;;;;;;20914742;28;20032;-44
2024/01/17 10:32:34;;;;;;;0.17;0.00;;;1.00;99.90;;;;;;20914341;28;20097;-44
2024/01/17 10:42:36;;;;;;;0.00;0.00;;;1.10;99.90;;;;;;20915271;28;20036;-44
2024/01/17 10:52:41;;;;;;;0.00;0.00;;;1.00;99.90;;;;;;20914703;28;20480;-43
2024/01/17 11:02:44;;;;;;;0.00;0.00;;;0.90;99.90;;;;;;20912089;28;20028;-43
2024/01/17 11:12:50;;;;;;;0.00;0.00;;;1.00;99.90;;;;;;20912227;28;20113;-43
2024/01/17 11:22:53;;;;;;;0.00;0.00;;;1.20;99.90;;;;;;20910240;28;20036;-46
2024/01/17 11:33:07;;;;;;;0.00;0.00;;;1.50;99.90;;;;;;20903995;28;21069;-48
2024/01/17 11:43:09;;;;;;;0.00;0.00;;;1.60;99.90;;;;;;20868025;28;21256;-46
2024/01/17 11:53:11;;;;;;;0.00;0.00;;;2.00;99.90;;;;;;20866299;28;20440;-45
2024/01/17 12:03:31;;;;;;;4.28;0.15;;;2.30;99.90;;;;;;20866882;28;20036;-46
2024/01/17 12:13:38;;;;;;;21.97;0.87;;;2.30;99.90;;;;;;20863818;28;20040;-46
2024/01/17 12:23:40;;;;;;;4.90;0.25;;;2.00;99.90;;;;;;20869025;28;20039;-45
2024/01/17 12:33:44;;;;;;;0.00;0.00;;;2.20;99.90;;;;;;20868419;28;20399;-43
2024/01/17 12:43:50;;;;;;;0.00;0.00;;;2.30;99.90;;;;;;20883258;28;20039;-44
2024/01/17 12:53:53;;;;;;;0.00;0.00;;;2.50;99.90;;;;;;20881016;28;20125;-42
2024/01/17 13:04:05;;;;;;;0.00;0.00;;;2.60;99.90;;;;;;20882618;28;20659;-44
2024/01/17 13:14:08;;;;;;;0.10;0.00;;;2.50;99.90;;;;;;20881206;28;20044;-42
2024/01/17 13:24:10;;;;;;;0.10;0.00;;;2.70;99.90;;;;;;20874644;28;20052;-42
2024/01/17 13:34:12;;;;;;;0.08;0.00;;;2.60;99.90;;;;;;20862932;28;20040;-41
2024/01/17 13:44:35;;;;;;;0.30;0.00;;;2.30;99.90;;;;;;20876598;28;20412;-41
2024/01/17 13:54:37;;;;;;;0.00;0.00;;;2.20;99.90;;;;;;20875332;28;20093;-44
2024/01/17 14:04:40;;;;;;;0.00;0.00;;;2.20;99.90;;;;;;20876530;28;20033;-44
2024/01/17 14:14:42;;;;;;;0.00;0.00;;;2.10;99.90;;;;;;20876253;28;20093;-44
2024/01/17 14:24:44;;;;;;;0.00;0.00;;;1.90;99.90;;;;;;20874069;28;20036;-44
2024/01/17 14:34:46;;;;;;;0.00;0.00;;;1.90;99.90;;;;;;20861195;28;20079;-41
2024/01/17 14:44:48;;;;;;;0.00;0.00;;;1.80;99.90;;;;;;20872651;28;20485;-44
2024/01/17 14:54:50;;;;;;;0.10;0.00;;;1.80;99.90;;;;;;20874723;28;20479;-44
2024/01/17 15:04:53;;;;;;;0.00;0.00;;;1.80;99.90;;;;;;20870407;28;20125;-43
2024/01/17 15:14:55;;;;;;;0.00;0.00;;;1.60;99.90;;;;;;20871055;28;20161;-43
2024/01/17 15:25:03;;;;;;;0.00;0.00;;;1.60;99.90;;;;;;20849830;28;20036;-43
2024/01/17 15:35:06;;;;;;;0.30;0.00;;;1.50;99.90;;;;;;20882430;28;20064;-43
2024/01/17 15:45:08;;;;;;;0.25;0.10;;;1.50;99.90;;;;;;20909015;28;20608;-44
2024/01/17 15:55:10;;;;;;;0.20;0.10;;;1.50;99.90;;;;;;20890337;28;20390;-42
2024/01/17 16:05:12;;;;;;;3.78;0.10;;;1.50;99.90;;;;;;20908959;28;20389;-42
2024/01/17 16:15:16;;;;;;;0.10;0.00;;;1.50;99.90;;;;;;20919137;28;20044;-43
2024/01/17 16:25:19;;;;;;;0.00;0.00;;;1.50;99.90;;;;;;20926668;28;20040;-42
2024/01/17 16:35:20;;;;;;;0.00;0.00;;;1.50;99.90;;;;;;20926607;28;20113;-43
2024/01/17 16:45:25;;;;;;;0.10;0.00;;;1.90;99.90;;;;;;20908637;28;20089;-44
2024/01/17 16:55:27;;;;;;;168.75;4.90;;;2.00;99.90;;;;;;20927170;28;20443;-42
2024/01/17 17:05:32;;;;;;;0.00;0.00;;;1.80;99.90;;;;;;20924846;28;20164;-42
2024/01/17 17:15:34;;;;;;;0.00;0.00;;;1.80;99.90;;;;;;20926149;28;20532;-44
2024/01/17 17:25:37;;;;;;;0.40;0.22;;;1.60;99.90;;;;;;20921885;28;20081;-43
2024/01/17 17:35:39;;;;;;;6.53;0.30;;;1.60;99.90;;;;;;20905857;28;20052;-43
2024/01/17 17:45:44;;;;;;;37.33;0.75;;;1.70;99.90;;;;;;20881305;28;20040;-42
2024/01/17 17:55:46;;;;;;;2.28;0.17;;;1.70;99.90;;;;;;20877870;28;20104;-42
2024/01/17 18:05:48;;;;;;;3.20;0.25;;;1.70;99.90;;;;;;20880842;28;20426;-43
2024/01/17 18:15:50;;;;;;;4.25;0.28;;;1.60;99.90;;;;;;20879344;28;20165;-43
2024/01/17 18:25:52;;;;;;;18.48;0.40;;;1.70;99.90;;;;;;20879573;28;20090;-42
2024/01/17 18:35:55;;;;;;;45.17;1.25;;;1.70;99.90;;;;;;20858688;28;20053;-43
2024/01/17 18:45:57;;;;;;;15.55;0.40;;;1.70;99.90;;;;;;20877306;28;20077;-43
2024/01/17 18:55:59;;;;;;;0.10;0.00;;;1.70;99.90;;;;;;20877974;28;20044;-43
2024/01/17 19:06:01;;;;;;;29.33;0.60;;;1.60;99.90;;;;;;20873450;28;20044;-42
2024/01/17 19:16:03;;;;;;;0.10;0.00;;;1.50;99.90;;;;;;20873458;28;20036;-43
2024/01/17 19:26:08;;;;;;;0.00;0.00;;;1.60;99.90;;;;;;20871547;28;20445;-42
2024/01/17 19:36:09;;;;;;;5.00;0.10;;;2.20;99.90;;;;;;20872317;28;20051;-41
2024/01/17 19:46:13;;;;;;;0.38;0.10;;;2.00;99.90;;;;;;20914665;28;20040;-42
2024/01/17 19:56:15;;;;;;;0.43;0.20;;;2.00;99.90;;;;;;20815994;28;20049;-42
2024/01/17 20:06:23;;;;;;;0.43;0.10;;;2.20;99.90;;;;;;20816657;28;20723;-42
2024/01/17 20:16:25;;;;;;;86.68;2.72;;;2.40;99.90;;;;;;20817195;28;20052;-42
2024/01/17 20:26:27;;;;;;;131.07;4.40;;;2.70;99.90;;;;;;20893104;28;20684;-42
2024/01/17 20:36:29;;;;;;;0.40;0.30;;;2.70;99.90;;;;;;20893117;28;20051;-42
2024/01/17 20:46:31;;;;;;;0.75;0.50;;;2.40;99.90;;;;;;20870170;28;20041;-42
2024/01/17 20:56:34;;;;;;;0.10;0.10;;;2.20;99.90;;;;;;20871063;28;20043;-43
2024/01/17 21:06:36;;;;;;;0.05;0.00;;;2.10;99.90;;;;;;20882469;28;20032;-43
2024/01/17 21:16:38;;;;;;;0.08;0.00;;;2.10;99.90;;;;;;20883725;28;20040;-44
2024/01/17 21:26:40;;;;;;;0.10;0.00;;;2.10;99.90;;;;;;20882867;28;20058;-43
2024/01/17 21:36:42;;;;;;;0.10;0.00;;;2.10;99.90;;;;;;20902720;28;20764;-42
2024/01/17 21:46:44;;;;;;;0.75;0.20;;;2.00;99.90;;;;;;20922178;28;20036;-42
2024/01/17 21:56:45;;;;;;;4.57;0.10;;;2.10;99.90;;;;;;20923057;28;20550;-42
2024/01/17 22:06:47;;;;;;;0.00;0.00;;;2.00;99.90;;;;;;20903118;28;20398;-42
2024/01/17 22:16:52;;;;;;;1.33;0.00;;;2.00;99.90;;;;;;20920125;28;20485;-41
2024/01/17 22:26:54;;;;;;;0.03;0.00;;;2.00;99.90;;;;;;20918796;28;20044;-42
2024/01/17 22:36:56;;;;;;;0.80;0.00;;;2.20;99.90;;;;;;20920340;28;20109;-43
2024/01/17 22:46:59;;;;;;;0.30;0.00;;;2.20;99.90;;;;;;20916625;28;20036;-42
2024/01/17 22:57:01;;;;;;;0.00;0.00;;;2.10;99.90;;;;;;20917933;28;20048;-43
2024/01/17 23:07:03;;;;;;;0.13;0.00;;;2.10;99.90;;;;;;20896040;28;20032;-42
2024/01/17 23:17:05;;;;;;;0.35;0.00;;;2.00;99.90;;;;;;20914917;28;20070;-42
2024/01/17 23:27:07;;;;;;;0.10;0.00;;;2.10;99.90;;;;;;20878024;28;20125;-43
2024/01/17 23:37:09;;;;;;;0.10;0.00;;;2.20;99.90;;;;;;20892989;28;20056;-42
2024/01/17 23:47:10;;;;;;;0.30;0.10;;;2.30;99.90;;;;;;20870780;28;20085;-43
2024/01/17 23:57:13;;;;;;;0.30;0.10;;;2.30;99.90;;;;;;20868406;28;20036;-41
